Terminal Aerodrome Forecast
Issued by NWS

Home | Current Version | Previous Version | Text Only | Print | Product List | Glossary On
Versions: 1 2 3 4 5 6 7 8 9 10 11 12 13 14 15
000
FTUS44 KSJT 230538
TAFSOA
TAF
KSOA 230538Z 2306/2406 16010G16KT P6SM SKC
     FM231300 18010G18KT P6SM OVC025
     FM231600 17020G30KT 6SM BLDU SCT250
     FM240200 15014G24KT P6SM FEW250=

USA.gov is the U.S. government's official web portal to all federal, state and local government web resources and services.